Time;durP1;ratioP1;P1;durP2;ratioP2;P2;SDS_P1;SDS_P2;PMS_P1;PMS_P2;Temp;Humidity;BMP_temperature;BMP_pressure;BME280_temperature;BME280_humidity;BME280_pressure;Samples;Min_cycle;Max_cycle;Signal;HPM_P1;HPM_P2
2022/02/26 00:02:00;;;;;;;9.13;7.63;;;3.20;72.00;;;;;;4990780;28;20193;-77
2022/02/26 00:04:25;;;;;;;13.33;6.53;;;3.10;72.10;;;;;;4991342;28;20216;-78
2022/02/26 00:06:51;;;;;;;13.83;7.90;;;3.10;72.00;;;;;;4993291;28;20189;-78
2022/02/26 00:09:17;;;;;;;15.63;8.40;;;3.10;72.20;;;;;;4989610;28;20181;-78
2022/02/26 00:11:42;;;;;;;13.27;7.80;;;3.00;71.80;;;;;;4994586;28;20247;-78
2022/02/26 00:14:09;;;;;;;16.30;7.57;;;3.10;72.10;;;;;;4994620;28;20185;-78
2022/02/26 00:16:34;;;;;;;15.03;7.57;;;3.00;72.00;;;;;;4996664;28;20217;-78
2022/02/26 00:19:00;;;;;;;14.47;7.43;;;3.00;72.40;;;;;;4995319;28;20184;-78
2022/02/26 00:21:26;;;;;;;14.97;7.73;;;3.00;72.50;;;;;;4994484;28;20240;-78
2022/02/26 00:23:52;;;;;;;12.63;8.00;;;3.00;73.00;;;;;;4995612;28;20206;-77
2022/02/26 00:26:21;;;;;;;15.97;8.17;;;3.00;73.00;;;;;;4998895;28;20952;-78
2022/02/26 00:28:46;;;;;;;16.30;8.23;;;3.00;72.80;;;;;;4992469;28;20232;-78
2022/02/26 00:31:12;;;;;;;17.97;9.20;;;2.90;73.30;;;;;;4994752;28;20182;-78
2022/02/26 00:33:38;;;;;;;22.47;10.00;;;2.90;73.30;;;;;;4996033;28;20192;-78
2022/02/26 00:36:05;;;;;;;17.87;10.13;;;2.90;73.30;;;;;;4995571;28;20651;-78
2022/02/26 00:38:31;;;;;;;22.83;11.40;;;2.80;73.80;;;;;;5014106;28;20212;-78
2022/02/26 00:40:57;;;;;;;28.43;11.43;;;2.80;73.80;;;;;;5001193;28;20236;-78
2022/02/26 00:43:22;;;;;;;23.80;11.23;;;2.70;74.10;;;;;;4989109;28;20809;-78
2022/02/26 00:45:48;;;;;;;26.37;10.13;;;2.70;73.80;;;;;;4996408;28;20192;-78
2022/02/26 00:48:14;;;;;;;23.17;9.53;;;2.70;74.20;;;;;;4994384;28;20181;-78
2022/02/26 00:50:40;;;;;;;18.83;10.07;;;2.70;74.20;;;;;;4998251;28;20236;-78
2022/02/26 00:53:06;;;;;;;29.27;9.33;;;2.60;74.30;;;;;;4995670;28;20943;-78
2022/02/26 00:55:31;;;;;;;17.63;8.60;;;2.60;74.10;;;;;;4994911;28;20185;-78
2022/02/26 00:57:58;;;;;;;18.27;8.83;;;2.50;74.60;;;;;;4999542;28;20223;-78
2022/02/26 01:00:23;;;;;;;17.30;8.87;;;2.50;75.10;;;;;;5016903;28;20272;-77
2022/02/26 01:02:49;;;;;;;9.17;6.50;;;2.50;74.90;;;;;;4996105;28;20760;-76
2022/02/26 01:05:15;;;;;;;11.90;6.37;;;2.50;74.60;;;;;;5010334;28;20244;-76
2022/02/26 01:07:41;;;;;;;14.67;7.23;;;2.50;74.40;;;;;;4998662;28;20299;-77
2022/02/26 01:10:07;;;;;;;17.13;6.67;;;2.60;74.50;;;;;;4996314;28;20871;-78
2022/02/26 01:12:33;;;;;;;10.27;6.87;;;2.60;74.40;;;;;;5013484;28;20696;-79
2022/02/26 01:15:02;;;;;;;16.17;7.43;;;2.60;74.30;;;;;;4999890;28;20554;-78
2022/02/26 01:17:28;;;;;;;20.53;7.80;;;2.60;74.30;;;;;;4999348;28;20581;-79
2022/02/26 01:19:54;;;;;;;14.80;7.20;;;2.70;74.50;;;;;;4995001;28;20186;-78
2022/02/26 01:22:19;;;;;;;17.07;8.27;;;2.70;74.40;;;;;;4998328;28;20185;-78
2022/02/26 01:24:45;;;;;;;12.63;7.97;;;2.70;74.50;;;;;;4993337;28;20239;-78
2022/02/26 01:27:11;;;;;;;13.87;7.87;;;2.70;74.30;;;;;;4993410;28;20188;-78
2022/02/26 01:29:37;;;;;;;17.60;8.33;;;2.70;74.40;;;;;;4996379;28;20282;-78
2022/02/26 01:32:04;;;;;;;13.53;7.40;;;2.70;74.50;;;;;;4992765;28;20194;-78
2022/02/26 01:34:30;;;;;;;14.07;8.27;;;2.70;74.60;;;;;;4996972;28;20200;-78
2022/02/26 01:36:55;;;;;;;13.03;8.27;;;2.70;74.70;;;;;;4995532;28;20290;-78
2022/02/26 01:39:24;;;;;;;17.70;9.60;;;2.60;74.60;;;;;;4995099;28;20300;-78
2022/02/26 01:41:53;;;;;;;14.67;10.03;;;2.60;75.00;;;;;;4992582;28;20189;-78
2022/02/26 01:44:19;;;;;;;15.67;8.80;;;2.50;75.30;;;;;;4992119;28;20217;-77
2022/02/26 01:46:45;;;;;;;19.13;8.03;;;2.50;75.40;;;;;;4998072;28;20189;-78
2022/02/26 01:49:11;;;;;;;19.03;8.77;;;2.50;75.70;;;;;;4999288;28;20652;-78
2022/02/26 01:51:37;;;;;;;13.10;8.57;;;2.50;75.60;;;;;;4997122;28;20825;-78
2022/02/26 01:54:03;;;;;;;14.03;8.70;;;2.50;75.50;;;;;;5000098;28;20240;-78
2022/02/26 01:56:29;;;;;;;15.13;8.40;;;2.50;75.40;;;;;;4992193;28;20189;-78
2022/02/26 01:58:55;;;;;;;14.87;8.23;;;2.50;75.60;;;;;;4993905;28;20170;-78
2022/02/26 02:01:21;;;;;;;14.20;8.43;;;2.50;75.60;;;;;;4999239;28;20293;-78
2022/02/26 02:03:46;;;;;;;12.27;7.60;;;2.50;76.00;;;;;;4996593;28;20219;-78
2022/02/26 02:06:13;;;;;;;18.97;8.67;;;2.50;76.00;;;;;;4995987;28;20193;-78
2022/02/26 02:08:43;;;;;;;16.10;8.13;;;2.40;75.70;;;;;;4993789;28;20210;-78
2022/02/26 02:11:09;;;;;;;15.37;7.73;;;2.40;75.40;;;;;;4997208;28;20743;-78
2022/02/26 02:13:35;;;;;;;13.37;7.27;;;2.40;75.50;;;;;;4994370;28;20205;-78
2022/02/26 02:16:01;;;;;;;15.73;7.70;;;2.40;75.40;;;;;;4993261;28;20186;-78
2022/02/26 02:18:27;;;;;;;9.93;6.73;;;2.30;75.30;;;;;;5008291;28;20235;-78
2022/02/26 02:20:53;;;;;;;11.20;6.57;;;2.30;75.20;;;;;;4994684;28;20193;-78
2022/02/26 02:23:19;;;;;;;9.93;5.60;;;2.20;75.00;;;;;;4995440;28;20177;-78
2022/02/26 02:25:45;;;;;;;13.43;6.50;;;2.20;75.00;;;;;;4994742;28;20196;-78
2022/02/26 02:28:12;;;;;;;10.93;6.00;;;2.20;75.10;;;;;;4993390;28;20189;-78
2022/02/26 02:30:39;;;;;;;7.67;5.70;;;2.20;75.00;;;;;;4998088;28;20209;-77
2022/02/26 02:33:06;;;;;;;6.30;3.83;;;2.20;75.10;;;;;;5001492;28;20196;-77
2022/02/26 02:35:40;;;;;;;7.53;5.53;;;2.10;75.20;;;;;;4991277;28;20217;-75
2022/02/26 02:38:17;;;;;;;11.53;5.33;;;2.10;75.00;;;;;;4994043;28;20230;-76
2022/02/26 02:40:45;;;;;;;6.50;4.30;;;2.10;75.10;;;;;;5000618;28;20263;-77
2022/02/26 02:43:11;;;;;;;10.60;5.03;;;2.10;75.40;;;;;;4999181;28;20182;-77
2022/02/26 02:45:38;;;;;;;6.27;5.37;;;2.10;75.20;;;;;;4994227;28;20254;-77
2022/02/26 02:48:05;;;;;;;9.30;5.43;;;2.10;75.40;;;;;;4996367;28;20324;-78
2022/02/26 02:50:31;;;;;;;7.80;4.97;;;2.00;75.40;;;;;;4994736;28;20189;-77
2022/02/26 02:52:58;;;;;;;5.03;4.30;;;2.00;75.70;;;;;;4997220;28;20185;-76
2022/02/26 02:55:24;;;;;;;6.63;4.37;;;2.00;75.40;;;;;;4992598;28;20189;-77
2022/02/26 02:57:51;;;;;;;8.40;5.27;;;2.00;75.60;;;;;;4993464;28;20186;-77
2022/02/26 03:00:17;;;;;;;10.10;3.97;;;2.00;75.50;;;;;;4990697;28;20193;-77
2022/02/26 03:02:44;;;;;;;12.60;5.27;;;1.90;75.60;;;;;;4998130;28;20715;-77
2022/02/26 03:05:10;;;;;;;7.53;4.50;;;1.90;75.50;;;;;;4992701;28;20213;-77
2022/02/26 03:07:37;;;;;;;7.10;4.07;;;1.90;75.50;;;;;;4994561;28;20182;-76
2022/02/26 03:10:06;;;;;;;8.27;4.67;;;1.80;75.50;;;;;;4998433;28;20241;-76
2022/02/26 03:12:32;;;;;;;5.50;4.17;;;1.80;75.30;;;;;;4989967;28;21887;-77
2022/02/26 03:14:58;;;;;;;6.17;4.10;;;1.80;75.40;;;;;;4994265;28;20248;-77
2022/02/26 03:17:24;;;;;;;6.30;3.93;;;1.80;75.30;;;;;;4995333;28;21008;-77
2022/02/26 03:19:52;;;;;;;7.00;4.73;;;1.70;75.90;;;;;;4989789;28;20268;-77
2022/02/26 03:22:18;;;;;;;9.43;3.77;;;1.60;76.10;;;;;;4994283;28;20623;-77
2022/02/26 03:24:45;;;;;;;8.30;5.17;;;1.60;76.30;;;;;;4998948;28;20220;-77
2022/02/26 03:27:11;;;;;;;4.90;3.53;;;1.50;76.80;;;;;;4993696;28;20252;-77
2022/02/26 03:29:37;;;;;;;9.17;4.40;;;1.50;76.90;;;;;;4997434;28;20185;-77
2022/02/26 03:32:04;;;;;;;7.67;4.03;;;1.60;76.90;;;;;;4996262;28;20192;-77
2022/02/26 03:34:30;;;;;;;6.00;5.03;;;1.60;76.90;;;;;;4989209;28;20658;-77
2022/02/26 03:36:57;;;;;;;5.83;5.00;;;1.50;76.70;;;;;;4994458;28;20251;-77
2022/02/26 03:39:24;;;;;;;7.20;4.43;;;1.60;77.00;;;;;;4996486;28;20473;-77
2022/02/26 03:41:51;;;;;;;9.93;5.20;;;1.60;78.50;;;;;;4994867;28;20182;-77
2022/02/26 03:44:17;;;;;;;12.00;4.53;;;1.60;79.30;;;;;;4995351;28;20291;-78
2022/02/26 03:46:42;;;;;;;5.57;5.03;;;1.70;80.00;;;;;;4996082;28;20291;-78
2022/02/26 03:49:08;;;;;;;4.40;4.07;;;1.80;81.00;;;;;;5000205;28;20243;-77
2022/02/26 03:51:35;;;;;;;5.10;4.70;;;1.90;81.90;;;;;;4996926;28;20189;-78
2022/02/26 03:54:01;;;;;;;6.60;4.33;;;2.10;82.00;;;;;;4993658;28;20190;-76
2022/02/26 03:56:27;;;;;;;3.57;3.27;;;2.20;82.00;;;;;;4996093;28;20181;-77
2022/02/26 03:58:54;;;;;;;6.67;4.77;;;2.30;82.00;;;;;;4997674;28;20281;-77
2022/02/26 04:01:20;;;;;;;9.40;4.80;;;2.40;81.70;;;;;;4996258;28;20240;-77
2022/02/26 04:03:46;;;;;;;6.13;4.77;;;2.50;81.70;;;;;;4994093;28;20210;-77
2022/02/26 04:06:13;;;;;;;5.80;4.83;;;2.60;81.60;;;;;;5000075;28;20182;-77
2022/02/26 04:08:39;;;;;;;4.50;4.10;;;2.70;81.60;;;;;;4995819;28;20178;-78
2022/02/26 04:11:04;;;;;;;5.10;4.27;;;2.70;81.60;;;;;;4993661;28;20181;-77
2022/02/26 04:13:30;;;;;;;5.30;3.93;;;2.80;81.60;;;;;;4999310;28;20901;-77
2022/02/26 04:15:56;;;;;;;5.57;4.87;;;2.90;81.70;;;;;;4997451;28;20188;-78
2022/02/26 04:18:21;;;;;;;7.23;4.60;;;3.00;81.50;;;;;;4997134;28;20573;-78
2022/02/26 04:20:47;;;;;;;5.00;4.60;;;3.00;81.40;;;;;;4995127;28;20209;-78
2022/02/26 04:23:13;;;;;;;4.87;3.93;;;3.10;81.50;;;;;;5002154;28;20801;-79
2022/02/26 04:25:39;;;;;;;5.07;4.60;;;3.10;81.40;;;;;;4998336;28;20219;-78
2022/02/26 04:28:04;;;;;;;4.63;4.20;;;3.20;81.10;;;;;;5003614;28;20192;-78
2022/02/26 04:30:30;;;;;;;7.00;5.00;;;3.20;81.10;;;;;;4998274;28;20631;-78
2022/02/26 04:32:56;;;;;;;6.00;4.30;;;3.20;81.20;;;;;;4994095;28;20204;-77
2022/02/26 04:35:22;;;;;;;7.57;4.23;;;3.30;81.20;;;;;;4997334;28;20268;-77
2022/02/26 04:37:48;;;;;;;12.43;4.67;;;3.30;81.00;;;;;;5000873;28;20193;-77
2022/02/26 04:40:15;;;;;;;5.03;4.50;;;3.30;81.20;;;;;;4992938;28;20181;-78
2022/02/26 04:42:42;;;;;;;6.97;5.13;;;3.40;81.20;;;;;;4997638;28;20208;-77
2022/02/26 04:45:10;;;;;;;7.20;5.83;;;3.40;81.40;;;;;;4997466;28;20318;-77
2022/02/26 04:47:37;;;;;;;5.00;4.50;;;3.40;81.40;;;;;;4997713;28;20234;-77
2022/02/26 04:50:06;;;;;;;9.03;4.37;;;3.40;81.10;;;;;;4992403;28;20183;-77
2022/02/26 04:52:31;;;;;;;6.60;4.30;;;3.40;80.90;;;;;;4996654;28;20180;-78
2022/02/26 04:54:57;;;;;;;7.03;4.57;;;3.40;80.90;;;;;;4999592;28;20193;-77
2022/02/26 04:57:23;;;;;;;6.50;3.80;;;3.50;80.60;;;;;;4994128;28;20216;-77
2022/02/26 04:59:49;;;;;;;6.77;4.60;;;3.50;80.10;;;;;;4998072;28;20683;-78
2022/02/26 05:02:15;;;;;;;6.37;4.53;;;3.50;79.90;;;;;;4997377;28;20268;-77
2022/02/26 05:04:40;;;;;;;6.93;4.77;;;3.50;79.90;;;;;;4998818;28;20224;-77
2022/02/26 05:07:06;;;;;;;10.17;3.57;;;3.50;79.90;;;;;;4996571;28;20178;-77
2022/02/26 05:09:32;;;;;;;6.43;4.93;;;3.50;79.50;;;;;;4996032;28;20279;-76
2022/02/26 05:11:58;;;;;;;7.90;4.80;;;3.40;78.90;;;;;;4995004;28;20746;-77
2022/02/26 05:14:24;;;;;;;9.57;5.97;;;3.40;78.50;;;;;;4998404;28;20189;-77
2022/02/26 05:16:49;;;;;;;8.53;5.60;;;3.30;78.10;;;;;;4994696;28;20186;-77
2022/02/26 05:19:15;;;;;;;10.17;6.37;;;3.20;77.40;;;;;;4995877;28;20208;-77
2022/02/26 05:21:41;;;;;;;15.77;6.40;;;3.10;77.40;;;;;;4993149;28;20540;-77
2022/02/26 05:24:07;;;;;;;12.63;6.37;;;3.00;77.20;;;;;;4995151;28;20218;-78
2022/02/26 05:26:33;;;;;;;11.47;5.40;;;2.90;78.00;;;;;;4994696;28;20173;-77
2022/02/26 05:28:59;;;;;;;7.67;4.67;;;2.90;78.50;;;;;;4993750;28;20204;-76
2022/02/26 05:31:26;;;;;;;9.70;5.30;;;2.80;79.20;;;;;;4992117;28;20291;-77
2022/02/26 05:33:52;;;;;;;7.27;6.50;;;2.80;79.50;;;;;;4997601;28;20230;-77
2022/02/26 05:36:18;;;;;;;5.40;4.90;;;2.90;80.70;;;;;;4990068;28;20590;-77
2022/02/26 05:38:43;;;;;;;11.83;5.17;;;2.90;81.40;;;;;;4996468;28;20320;-77
2022/02/26 05:41:09;;;;;;;7.27;4.90;;;2.90;81.70;;;;;;4992654;28;20176;-77
2022/02/26 05:43:35;;;;;;;6.93;5.17;;;3.00;82.10;;;;;;4992395;28;20925;-77
2022/02/26 05:46:01;;;;;;;6.33;5.17;;;3.00;82.60;;;;;;4990586;28;20272;-79
2022/02/26 05:48:30;;;;;;;5.30;3.87;;;3.00;82.30;;;;;;5001056;28;20181;-78
2022/02/26 05:50:56;;;;;;;8.73;4.53;;;3.10;82.20;;;;;;4995113;28;21629;-78
2022/02/26 05:53:22;;;;;;;6.43;4.63;;;3.20;82.40;;;;;;4995552;28;20188;-76
2022/02/26 05:55:48;;;;;;;6.60;5.03;;;3.20;82.30;;;;;;4997557;28;20240;-77
2022/02/26 05:58:14;;;;;;;6.90;4.77;;;3.30;82.10;;;;;;5008277;28;20189;-76
2022/02/26 06:00:43;;;;;;;5.10;4.50;;;3.30;82.00;;;;;;4997286;28;20277;-77
2022/02/26 06:03:11;;;;;;;4.87;4.23;;;3.40;81.90;;;;;;4991200;28;21047;-78
2022/02/26 06:05:36;;;;;;;6.67;5.33;;;3.40;81.80;;;;;;4993882;28;20224;-76
2022/02/26 06:08:03;;;;;;;8.03;4.90;;;3.50;81.70;;;;;;4998219;28;20189;-77
2022/02/26 06:10:29;;;;;;;8.23;5.03;;;3.50;81.60;;;;;;4999531;28;20247;-76
2022/02/26 06:12:57;;;;;;;11.27;5.73;;;3.60;81.60;;;;;;4996018;28;20215;-78
2022/02/26 06:15:23;;;;;;;8.43;4.73;;;3.60;81.50;;;;;;4999702;28;20191;-75
2022/02/26 06:17:49;;;;;;;7.23;5.30;;;3.70;81.40;;;;;;4994879;28;20185;-76
2022/02/26 06:20:15;;;;;;;8.63;4.67;;;3.70;81.10;;;;;;4993017;28;20177;-75
2022/02/26 06:22:41;;;;;;;7.70;4.27;;;3.80;81.00;;;;;;4995525;28;20186;-75
2022/02/26 06:25:07;;;;;;;9.83;5.27;;;3.90;80.70;;;;;;4996416;28;20216;-75
2022/02/26 06:27:41;;;;;;;5.90;4.30;;;4.00;80.70;;;;;;4994877;28;20244;-74
2022/02/26 06:30:08;;;;;;;6.50;4.67;;;4.10;80.20;;;;;;4994866;28;20607;-76
2022/02/26 06:32:35;;;;;;;8.27;5.17;;;4.20;80.00;;;;;;4993182;28;20177;-78
2022/02/26 06:35:01;;;;;;;6.67;5.03;;;4.20;79.90;;;;;;4997715;28;20256;-77
2022/02/26 06:37:27;;;;;;;5.63;4.63;;;4.20;79.80;;;;;;4997707;28;20271;-75
2022/02/26 06:39:53;;;;;;;10.70;5.97;;;4.20;79.70;;;;;;4993680;28;20220;-77
2022/02/26 06:42:20;;;;;;;10.87;5.40;;;4.20;79.80;;;;;;4997129;28;20697;-77
2022/02/26 06:44:47;;;;;;;11.33;5.93;;;4.20;79.80;;;;;;4990616;28;20307;-78
2022/02/26 06:47:13;;;;;;;5.97;4.37;;;4.30;79.90;;;;;;5009905;28;20253;-79
2022/02/26 06:49:39;;;;;;;10.37;5.43;;;4.40;79.70;;;;;;4992914;28;20757;-80
2022/02/26 06:52:05;;;;;;;5.63;4.87;;;4.50;79.40;;;;;;4995113;28;20204;-79
2022/02/26 06:54:31;;;;;;;6.60;4.77;;;4.60;79.10;;;;;;4995211;28;20189;-79
2022/02/26 06:56:57;;;;;;;6.53;5.17;;;4.60;78.80;;;;;;4992064;28;20192;-79
2022/02/26 06:59:26;;;;;;;5.93;4.90;;;4.50;78.80;;;;;;4997371;28;20208;-79
2022/02/26 07:01:52;;;;;;;7.87;3.83;;;4.50;78.90;;;;;;4996898;28;20189;-79
2022/02/26 07:04:19;;;;;;;6.87;4.90;;;4.60;78.70;;;;;;4992451;28;20560;-77
2022/02/26 07:06:47;;;;;;;4.87;3.77;;;4.70;78.70;;;;;;4993929;28;20184;-78
2022/02/26 07:09:15;;;;;;;5.63;4.47;;;4.80;78.60;;;;;;4997899;28;20275;-77
2022/02/26 07:11:41;;;;;;;7.63;4.90;;;4.90;78.10;;;;;;4992849;28;20283;-76
2022/02/26 07:14:08;;;;;;;5.33;4.70;;;5.10;77.80;;;;;;4991631;28;20196;-76
2022/02/26 07:16:34;;;;;;;5.77;4.40;;;5.20;77.30;;;;;;4990698;28;20240;-76
2022/02/26 07:19:03;;;;;;;6.73;4.60;;;5.30;77.30;;;;;;4989220;28;20655;-76
2022/02/26 07:21:29;;;;;;;6.83;5.17;;;5.50;77.30;;;;;;4993754;28;20196;-77
2022/02/26 07:23:56;;;;;;;7.53;5.37;;;5.60;76.90;;;;;;4993695;28;20262;-77
2022/02/26 07:26:29;;;;;;;6.93;5.27;;;5.80;76.60;;;;;;4991887;28;20181;-78
2022/02/26 07:28:56;;;;;;;9.17;6.17;;;5.90;75.80;;;;;;4988508;28;20835;-76
2022/02/26 07:31:22;;;;;;;6.50;5.10;;;6.00;75.80;;;;;;4990667;28;20189;-76
2022/02/26 07:33:48;;;;;;;9.57;5.30;;;6.10;75.70;;;;;;4994095;28;20185;-76
2022/02/26 07:36:17;;;;;;;7.67;4.87;;;6.30;75.20;;;;;;4993257;28;20189;-77
2022/02/26 07:38:43;;;;;;;8.57;5.23;;;6.50;74.50;;;;;;4992321;28;20246;-75
2022/02/26 07:41:09;;;;;;;6.17;5.13;;;6.50;73.80;;;;;;4991228;28;20181;-79
2022/02/26 07:43:36;;;;;;;4.93;4.40;;;6.60;73.70;;;;;;4996123;28;20665;-79
2022/02/26 07:46:02;;;;;;;6.10;5.13;;;6.80;73.80;;;;;;4989462;28;20182;-79
2022/02/26 07:48:28;;;;;;;5.97;5.37;;;7.30;73.40;;;;;;4994658;28;20195;-76
2022/02/26 07:50:54;;;;;;;6.97;5.03;;;7.80;72.30;;;;;;4995304;28;20417;-76
2022/02/26 07:53:19;;;;;;;10.73;5.20;;;8.40;71.60;;;;;;4996370;28;20193;-77
2022/02/26 07:55:45;;;;;;;7.37;5.43;;;9.10;69.80;;;;;;4995803;28;20736;-78
2022/02/26 07:58:11;;;;;;;9.07;5.90;;;9.70;70.20;;;;;;4994522;28;20229;-77
2022/02/26 08:00:37;;;;;;;7.73;5.87;;;10.60;69.50;;;;;;4996147;28;21177;-77
2022/02/26 08:03:03;;;;;;;7.87;5.60;;;11.40;67.60;;;;;;4994478;28;20764;-78
2022/02/26 08:05:29;;;;;;;8.97;5.97;;;12.20;65.70;;;;;;4995237;28;20213;-78
2022/02/26 08:07:55;;;;;;;6.73;5.40;;;12.80;63.80;;;;;;4997553;28;20174;-78
2022/02/26 08:10:22;;;;;;;9.57;6.27;;;13.40;62.80;;;;;;4991365;28;20196;-78
2022/02/26 08:12:52;;;;;;;10.35;7.25;;;13.90;61.80;;;;;;4995253;28;20196;-78
2022/02/26 08:15:19;;;;;;;11.35;6.72;;;14.60;60.70;;;;;;4995627;28;20185;-78
2022/02/26 08:17:46;;;;;;;7.80;6.40;;;15.20;60.00;;;;;;4993728;28;20216;-78
2022/02/26 08:20:15;;;;;;;10.48;6.50;;;15.80;59.80;;;;;;4993658;28;20247;-79
2022/02/26 08:22:41;;;;;;;10.95;6.30;;;16.50;56.90;;;;;;4995743;28;20189;-79
2022/02/26 08:25:09;;;;;;;9.32;7.03;;;17.20;56.70;;;;;;4992345;28;20283;-79
2022/02/26 08:27:34;;;;;;;11.10;7.03;;;17.80;56.10;;;;;;4995640;28;20181;-79
2022/02/26 08:30:00;;;;;;;12.45;8.27;;;18.30;54.00;;;;;;4992832;28;20209;-79
2022/02/26 08:32:26;;;;;;;9.50;7.35;;;18.80;53.60;;;;;;4997403;28;20583;-78
2022/02/26 08:34:52;;;;;;;10.13;7.65;;;19.30;53.00;;;;;;4992398;28;20197;-76
2022/02/26 08:37:17;;;;;;;10.13;8.20;;;19.70;51.70;;;;;;4995420;28;20189;-79
2022/02/26 08:39:43;;;;;;;11.32;8.05;;;20.00;50.50;;;;;;4999800;28;20213;-78
2022/02/26 08:42:09;;;;;;;8.60;7.38;;;20.10;50.80;;;;;;5002132;28;20178;-79
2022/02/26 08:44:35;;;;;;;9.38;8.15;;;20.40;50.60;;;;;;4991776;28;20241;-80
2022/02/26 08:47:01;;;;;;;10.45;8.55;;;20.80;51.30;;;;;;4994201;28;20192;-80
2022/02/26 08:49:27;;;;;;;8.93;7.45;;;21.40;51.60;;;;;;5000953;28;20945;-81
2022/02/26 08:51:54;;;;;;;10.65;8.25;;;22.00;49.10;;;;;;5001766;28;20177;-78
2022/02/26 08:54:19;;;;;;;13.30;7.72;;;22.50;50.40;;;;;;4996957;28;20184;-80
2022/02/26 08:56:46;;;;;;;11.05;7.97;;;23.00;49.60;;;;;;5001492;28;20191;-77
2022/02/26 08:59:12;;;;;;;10.52;8.00;;;23.50;48.80;;;;;;5000160;28;20189;-77
2022/02/26 09:01:38;;;;;;;8.48;7.50;;;24.00;47.30;;;;;;4999227;28;20227;-78
2022/02/26 09:04:06;;;;;;;8.50;7.70;;;24.40;46.80;;;;;;4997365;28;20212;-77
2022/02/26 09:06:33;;;;;;;9.30;7.50;;;24.60;47.00;;;;;;4996371;28;20180;-77
2022/02/26 09:08:59;;;;;;;11.77;7.45;;;24.70;45.30;;;;;;4997962;28;20189;-76
2022/02/26 09:11:26;;;;;;;9.85;7.38;;;24.80;45.60;;;;;;4996490;28;20655;-79
2022/02/26 09:13:51;;;;;;;7.80;6.78;;;24.90;45.00;;;;;;4995211;28;20538;-78
2022/02/26 09:16:17;;;;;;;10.40;7.63;;;25.00;44.70;;;;;;4994887;28;20177;-78
2022/02/26 09:18:44;;;;;;;8.63;7.55;;;25.00;43.80;;;;;;4997994;28;20181;-78
2022/02/26 09:21:10;;;;;;;10.63;8.13;;;24.80;44.20;;;;;;4994378;28;20196;-78
2022/02/26 09:23:37;;;;;;;8.23;7.43;;;24.50;44.90;;;;;;4999247;28;20367;-78
2022/02/26 09:26:04;;;;;;;7.65;6.85;;;24.60;44.40;;;;;;4996101;28;21308;-77
2022/02/26 09:28:35;;;;;;;9.50;6.32;;;25.00;45.20;;;;;;4998324;28;20191;-77
2022/02/26 09:31:05;;;;;;;11.05;7.28;;;25.30;44.50;;;;;;4995515;28;20667;-78
2022/02/26 09:33:31;;;;;;;9.27;7.85;;;25.50;44.30;;;;;;4999030;28;20196;-78
2022/02/26 09:35:59;;;;;;;7.65;6.95;;;25.70;43.80;;;;;;4994211;28;20173;-78
2022/02/26 09:38:25;;;;;;;7.75;7.05;;;26.00;42.60;;;;;;4997208;28;20671;-78
2022/02/26 09:40:53;;;;;;;7.38;6.70;;;25.60;41.50;;;;;;4995436;28;20686;-78
2022/02/26 09:43:20;;;;;;;9.10;7.30;;;25.30;43.60;;;;;;4998096;28;20233;-78
2022/02/26 09:45:46;;;;;;;11.18;7.20;;;25.40;43.80;;;;;;4992410;28;21369;-78
2022/02/26 09:48:12;;;;;;;7.80;6.45;;;25.50;42.50;;;;;;4999217;28;20178;-78
2022/02/26 09:50:38;;;;;;;9.57;7.07;;;25.70;42.20;;;;;;4995349;28;20181;-77
2022/02/26 09:53:04;;;;;;;8.68;7.53;;;25.70;41.70;;;;;;4992663;28;20196;-78
2022/02/26 09:55:31;;;;;;;12.27;7.55;;;25.60;41.80;;;;;;4995712;28;20635;-78
2022/02/26 09:57:59;;;;;;;8.70;7.15;;;25.60;42.80;;;;;;4993023;28;20209;-78
2022/02/26 10:00:25;;;;;;;8.98;6.75;;;25.70;43.80;;;;;;4999522;28;20177;-78
2022/02/26 10:02:51;;;;;;;9.10;6.53;;;26.10;43.00;;;;;;4992708;28;20232;-78
2022/02/26 10:05:18;;;;;;;9.68;6.38;;;26.60;42.80;;;;;;4986418;28;20212;-78
2022/02/26 10:07:46;;;;;;;8.25;6.63;;;27.00;42.00;;;;;;4993872;28;20189;-78
2022/02/26 10:10:19;;;;;;;9.23;6.57;;;27.10;41.60;;;;;;4990663;28;20900;-78
2022/02/26 10:12:50;;;;;;;10.18;6.53;;;27.30;40.40;;;;;;4992770;28;20181;-78
2022/02/26 10:15:37;;;;;;;7.70;6.78;;;27.60;40.60;;;;;;4994787;28;20643;-78
2022/02/26 10:18:13;;;;;;;7.55;6.72;;;27.70;39.40;;;;;;4999740;28;20193;-78
2022/02/26 10:20:48;;;;;;;9.30;6.97;;;27.40;41.30;;;;;;4991352;28;20181;-78
2022/02/26 10:23:15;;;;;;;9.63;6.97;;;27.50;41.80;;;;;;4998100;28;20268;-78
2022/02/26 10:25:41;;;;;;;7.30;6.63;;;27.80;42.10;;;;;;4990118;28;20284;-77
2022/02/26 10:28:11;;;;;;;6.82;6.25;;;28.10;40.60;;;;;;4997204;28;20189;-77
2022/02/26 10:30:40;;;;;;;7.72;6.90;;;28.50;41.00;;;;;;4995933;28;20217;-79
2022/02/26 10:33:07;;;;;;;7.40;6.70;;;28.80;40.80;;;;;;4991933;28;20178;-79
2022/02/26 10:35:54;;;;;;;8.32;7.45;;;29.20;39.40;;;;;;4992310;28;20190;-78
2022/02/26 10:38:20;;;;;;;8.65;7.22;;;28.80;37.80;;;;;;4992459;28;20181;-77
2022/02/26 10:40:57;;;;;;;9.13;7.57;;;28.70;39.90;;;;;;4998395;28;20206;-78
2022/02/26 10:43:46;;;;;;;10.02;8.25;;;28.90;39.90;;;;;;4991856;28;20189;-77
2022/02/26 10:46:33;;;;;;;10.05;7.45;;;29.10;38.10;;;;;;5007882;28;20213;-77
2022/02/26 10:49:13;;;;;;;8.63;7.85;;;29.30;38.20;;;;;;4997564;28;20637;-78
2022/02/26 10:51:42;;;;;;;10.90;7.88;;;29.50;39.10;;;;;;4996577;28;20181;-78
2022/02/26 10:54:16;;;;;;;8.05;7.30;;;29.60;39.80;;;;;;4995218;28;20211;-78
2022/02/26 10:56:44;;;;;;;7.88;7.18;;;29.10;37.10;;;;;;4991279;28;20205;-78
2022/02/26 10:59:11;;;;;;;8.07;7.28;;;28.10;40.00;;;;;;4989576;28;20489;-78
2022/02/26 11:01:38;;;;;;;8.45;7.50;;;27.70;38.80;;;;;;4993071;28;20251;-77
2022/02/26 11:04:05;;;;;;;9.55;7.60;;;27.80;40.20;;;;;;4991103;28;20284;-78
2022/02/26 11:06:32;;;;;;;8.35;7.53;;;27.90;40.40;;;;;;4992307;28;20184;-78
2022/02/26 11:08:59;;;;;;;8.13;6.65;;;28.30;40.50;;;;;;4997286;28;20193;-81
2022/02/26 11:11:25;;;;;;;8.95;7.88;;;28.60;40.10;;;;;;4990217;28;20587;-79
2022/02/26 11:13:55;;;;;;;7.78;6.80;;;28.90;39.00;;;;;;4991211;28;20249;-76
2022/02/26 11:16:23;;;;;;;7.50;6.05;;;29.00;39.60;;;;;;4998799;28;20197;-80
2022/02/26 11:18:53;;;;;;;7.70;5.70;;;29.30;39.00;;;;;;4991457;28;20193;-75
2022/02/26 11:21:20;;;;;;;6.32;5.72;;;29.40;38.90;;;;;;4995870;28;20265;-75
2022/02/26 11:23:48;;;;;;;5.97;5.40;;;29.50;38.00;;;;;;4999101;28;20235;-76
2022/02/26 11:26:16;;;;;;;5.78;5.03;;;29.60;39.10;;;;;;4992513;28;20181;-75
2022/02/26 11:28:48;;;;;;;8.93;4.57;;;29.80;39.00;;;;;;4991919;28;20235;-75
2022/02/26 11:31:36;;;;;;;5.82;5.30;;;30.00;39.10;;;;;;4999777;28;20201;-75
2022/02/26 11:34:02;;;;;;;8.18;5.18;;;30.10;38.90;;;;;;4994518;28;20268;-77
2022/02/26 11:37:05;;;;;;;6.28;5.63;;;29.80;37.60;;;;;;4996445;28;20622;-75
2022/02/26 11:39:39;;;;;;;8.65;4.72;;;29.50;36.20;;;;;;4997136;28;20295;-75
2022/02/26 11:42:22;;;;;;;4.10;3.70;;;29.50;37.30;;;;;;4995216;28;20553;-79
2022/02/26 11:44:53;;;;;;;3.50;3.33;;;29.40;35.10;;;;;;4992823;28;20181;-79
2022/02/26 11:47:21;;;;;;;4.32;3.97;;;28.90;36.50;;;;;;4994385;28;20273;-76
2022/02/26 11:49:57;;;;;;;4.60;4.15;;;28.50;37.60;;;;;;4994643;28;20189;-80
2022/02/26 11:52:45;;;;;;;4.32;3.90;;;27.90;38.20;;;;;;4998896;28;20184;-78
2022/02/26 11:55:37;;;;;;;4.45;4.05;;;27.70;36.80;;;;;;4991352;28;20210;-77
2022/02/26 11:58:35;;;;;;;4.70;4.20;;;27.70;38.20;;;;;;4990473;28;20280;-75
2022/02/26 12:01:00;;;;;;;4.93;4.55;;;27.90;37.30;;;;;;4992869;28;20192;-79
2022/02/26 12:03:32;;;;;;;4.60;4.22;;;27.60;37.80;;;;;;4995956;28;20181;-78
2022/02/26 12:06:12;;;;;;;4.72;4.07;;;27.20;37.90;;;;;;4995972;28;20185;-78
2022/02/26 12:08:44;;;;;;;4.82;4.45;;;27.00;37.90;;;;;;4995759;28;20208;-77
2022/02/26 12:11:24;;;;;;;4.07;3.67;;;27.20;39.50;;;;;;4999097;28;20188;-76
2022/02/26 12:13:56;;;;;;;3.97;3.78;;;27.50;38.90;;;;;;4994974;28;20208;-78
2022/02/26 12:16:25;;;;;;;3.78;3.53;;;27.80;38.00;;;;;;4995630;28;21857;-76
2022/02/26 12:18:58;;;;;;;3.80;3.53;;;28.00;38.30;;;;;;4992864;28;20582;-77
2022/02/26 12:21:30;;;;;;;4.32;3.83;;;28.30;38.70;;;;;;4994388;28;20185;-77
2022/02/26 12:24:21;;;;;;;4.05;3.83;;;28.40;37.30;;;;;;4997657;28;20188;-76
2022/02/26 12:26:58;;;;;;;4.85;4.45;;;28.40;36.60;;;;;;4996033;28;20213;-76
2022/02/26 12:29:39;;;;;;;4.50;4.18;;;28.10;37.60;;;;;;4997008;28;20217;-76
2022/02/26 12:32:14;;;;;;;4.35;4.15;;;27.70;37.90;;;;;;4993409;28;20246;-75
2022/02/26 12:34:48;;;;;;;4.40;4.20;;;27.00;36.60;;;;;;4989312;28;20219;-75
2022/02/26 12:37:24;;;;;;;4.32;4.05;;;26.20;39.40;;;;;;4998848;28;20327;-75
2022/02/26 12:40:33;;;;;;;4.53;4.20;;;25.90;39.40;;;;;;4991118;28;20185;-75
2022/02/26 12:43:09;;;;;;;4.47;4.10;;;25.70;39.50;;;;;;4966678;28;20648;-76
2022/02/26 12:45:43;;;;;;;4.40;4.10;;;25.10;40.10;;;;;;4981400;28;20203;-76
2022/02/26 12:48:09;;;;;;;4.60;4.30;;;24.80;40.50;;;;;;4982371;28;20194;-76
2022/02/26 12:50:36;;;;;;;4.60;4.30;;;24.50;40.20;;;;;;4980767;28;20185;-77
2022/02/26 12:53:03;;;;;;;5.05;4.63;;;23.90;40.40;;;;;;4981380;28;20945;-76
2022/02/26 12:55:31;;;;;;;7.88;5.47;;;23.40;42.20;;;;;;4981617;28;20258;-76